M I D A S
Marine Information and Data Acquisition System
Tripno 715 of the Zeeleeuw from 2004-05-12 06:32:25 to 2004-05-12 16:00:46
Back to CruiseResearch ActivitiesStationsMapUnderway DataData graphs

EquipmentUnitsComment
TimeDGPSUTC
LatitudeDGPSDM.mWGS84
LongitudeDGPSDM.mWGS84
HeadingGyrodeg 
SOGDGPSknotsSpeed over ground
COGDGPSdegCourse over ground
DepthEcho soundermeters200 kHz
Missing or incorrect values are displayed as -999
Navigation data collected by the RV Zeeleeuw from 2004-05-12 06:32:25 to 2004-05-12 16:00:46
Time Latitude Longitude Heading SOG COG Depth
2004-05-12 06:33:28 51°13.609 2°56.049 117.9 3.7 294 -999
2004-05-12 06:34:28 51°13.644 2°55.937 125.4 5 299 -999
2004-05-12 06:35:27 51°13.686 2°55.824 120.3 5.1 296 -999
2004-05-12 06:36:27 51°13.702 2°55.776 87.3 1.3 74 15.4
2004-05-12 06:37:27 51°13.696 2°55.748 75.9 1 248 -999
2004-05-12 06:38:27 51°13.707 2°55.765 35.5 0.4 196 16.2
2004-05-12 06:39:28 51°13.7 2°55.751 14.7 3 4 -999
2004-05-12 06:40:27 51°13.779 2°55.685 333.3 6.2 328 12
2004-05-12 06:41:28 51°13.877 2°55.591 338.8 7.2 333 11.7
2004-05-12 06:42:27 51°13.988 2°55.51 341.8 7.5 335 13.2
2004-05-12 06:43:27 51°14.108 2°55.431 346.7 8.6 340 13.2
2004-05-12 06:44:27 51°14.247 2°55.304 324.9 10.9 317 13.3
2004-05-12 06:45:28 51°14.368 2°55.046 307.9 12.6 300 13.1
2004-05-12 06:46:27 51°14.496 2°54.777 309.3 12.8 308 12.9
2004-05-12 06:47:27 51°14.624 2°54.507 309.5 12.8 308 12.4
2004-05-12 06:48:27 51°14.739 2°54.222 300.1 12.8 298 12.5
2004-05-12 06:49:28 51°14.837 2°53.918 298.3 12.7 294 12.2
2004-05-12 06:50:27 51°14.918 2°53.609 295.4 12.7 292 12.2
2004-05-12 06:51:27 51°14.997 2°53.293 295.4 12.8 292 12.6
2004-05-12 06:52:27 51°15.075 2°52.979 294.2 12.7 291 12.8
2004-05-12 06:53:27 51°15.154 2°52.662 295.3 12.9 292 13.3
2004-05-12 06:54:27 51°15.224 2°52.339 289.5 12.9 285 13.7
2004-05-12 06:55:27 51°15.284 2°52.01 290.2 12.8 285 14.5
2004-05-12 06:56:27 51°15.315 2°51.675 279.2 12.8 271 14.9
2004-05-12 06:57:26 51°15.283 2°51.348 262.6 12.7 254 14.9
2004-05-12 06:58:27 51°15.246 2°51.007 264.3 12.7 263 15.1
2004-05-12 06:59:28 51°15.209 2°50.667 263.6 12.8 263 15.2
2004-05-12 07:00:28 51°15.174 2°50.333 264.8 12.7 259 15.2
2004-05-12 07:01:27 51°15.141 2°50.005 264.2 12.8 261 15.1
2004-05-12 07:02:27 51°15.109 2°49.67 266.3 12.6 260 15.2
2004-05-12 07:03:27 51°15.078 2°49.335 264.5 12.8 262 15.3
2004-05-12 07:04:27 51°15.046 2°48.999 265 12.9 264 15.3
2004-05-12 07:05:27 51°15.013 2°48.665 265.6 12.7 261 15.2
2004-05-12 07:06:27 51°14.981 2°48.328 265.2 12.8 257 15.3
2004-05-12 07:07:27 51°14.947 2°47.997 265.5 12.6 257 15.4
2004-05-12 07:08:27 51°14.916 2°47.664 266.5 12.6 259 15.4
2004-05-12 07:09:27 51°14.885 2°47.332 265.8 12.5 262 15
2004-05-12 07:10:27 51°14.851 2°47.002 264.5 12.7 261 13.7
2004-05-12 07:11:28 51°14.815 2°46.664 264.6 12.7 259 11.9
2004-05-12 07:12:28 51°14.783 2°46.327 265.6 12.8 261 11.4
2004-05-12 07:13:27 51°14.752 2°45.998 266.2 12.7 259 11.1
2004-05-12 07:14:27 51°14.722 2°45.662 265.2 12.8 265 12.3
2004-05-12 07:15:27 51°14.691 2°45.329 265.1 12.6 259 13.8
2004-05-12 07:16:28 51°14.659 2°44.994 265.2 12.7 264 15
2004-05-12 07:17:26 51°14.629 2°44.676 266.3 12.6 261 16.4
2004-05-12 07:18:27 51°14.598 2°44.341 264.9 12.5 262 17.4
2004-05-12 07:19:28 51°14.57 2°44.004 265.2 12.8 268 18.4
2004-05-12 07:20:27 51°14.541 2°43.682 266.1 12.5 265 18.1
2004-05-12 07:21:27 51°14.509 2°43.352 264.9 12.8 261 18.8
2004-05-12 07:22:27 51°14.48 2°43.02 264.7 12.5 263 19.5
2004-05-12 07:23:27 51°14.448 2°42.69 264.9 12.7 262 19.5
2004-05-12 07:24:26 51°14.42 2°42.362 265.7 12.8 263 19.5
2004-05-12 07:25:28 51°14.392 2°42.017 265.4 12.7 265 19.1
2004-05-12 07:26:27 51°14.359 2°41.692 264.7 12.7 263 17.6
2004-05-12 07:27:27 51°14.328 2°41.358 264.8 12.8 259 16.4
2004-05-12 07:28:27 51°14.302 2°41.023 266.7 12.6 259 17
2004-05-12 07:29:26 51°14.28 2°40.692 267.1 12.8 262 16
2004-05-12 07:30:27 51°14.257 2°40.348 267.3 12.8 264 16.8
2004-05-12 07:31:27 51°14.234 2°40.013 267.3 12.5 265 16
2004-05-12 07:32:28 51°14.211 2°39.669 266.7 13 267 15.6
2004-05-12 07:33:28 51°14.186 2°39.331 264.8 12.8 257 15.3
2004-05-12 07:34:27 51°14.149 2°39.003 263 13 263 14.2
2004-05-12 07:35:27 51°14.115 2°38.666 263.6 12.7 262 15.9
2004-05-12 07:36:27 51°14.066 2°38.335 260.1 13 258 18.5
2004-05-12 07:37:27 51°13.991 2°38.019 250.8 12.6 248 19.5
2004-05-12 07:38:25 51°13.901 2°37.727 242.6 12.8 237 19.9
2004-05-12 07:39:25 51°13.79 2°37.439 245.1 12.8 243 20
2004-05-12 07:40:27 51°13.701 2°37.121 249.9 12.8 246 19.9
2004-05-12 07:41:27 51°13.619 2°36.808 251.8 12.3 245 20.6
2004-05-12 07:42:27 51°13.541 2°36.492 254 13 249 19.7
2004-05-12 07:43:27 51°13.466 2°36.176 251.9 12.6 251 19.1
2004-05-12 07:44:28 51°13.389 2°35.851 252.5 13.4 252 19.3
2004-05-12 07:45:27 51°13.313 2°35.532 249.5 13.2 248 19.2
2004-05-12 07:46:27 51°13.229 2°35.221 249.3 12.6 247 18.9
2004-05-12 07:47:28 51°13.146 2°34.897 250.7 12.9 249 19.4
2004-05-12 07:48:27 51°13.067 2°34.577 250.2 13.7 247 18.6
2004-05-12 07:49:26 51°12.988 2°34.265 250.5 12.8 250 18.4
2004-05-12 07:50:25 51°12.91 2°33.947 251.9 13.3 252 17.4
2004-05-12 07:51:28 51°12.826 2°33.611 251.1 12.8 250 16.7
2004-05-12 07:52:27 51°12.747 2°33.295 249 13.1 251 16.9
2004-05-12 07:53:27 51°12.664 2°32.975 251.3 12.9 246 18.1
2004-05-12 07:54:28 51°12.581 2°32.652 251.1 12.9 246 19.6
2004-05-12 07:55:27 51°12.5 2°32.34 248.9 12.9 247 21.9
2004-05-12 07:56:28 51°12.418 2°32.009 249 13.2 250 23.6
2004-05-12 07:57:28 51°12.335 2°31.689 248.7 12.9 247 24.9
2004-05-12 07:58:28 51°12.242 2°31.38 246.4 12.9 247 24.4
2004-05-12 07:59:26 51°12.156 2°31.08 249.5 13 247 24.5
2004-05-12 08:00:28 51°12.063 2°30.76 248 13.2 243 24.2
2004-05-12 08:01:28 51°11.975 2°30.446 250.6 12.7 244 24
2004-05-12 08:02:28 51°11.883 2°30.139 249.5 12.6 248 24.3
2004-05-12 08:03:27 51°11.791 2°29.832 246.7 13.1 246 24.2
2004-05-12 08:04:27 51°11.7 2°29.523 249.5 12.8 242 24.8
2004-05-12 08:05:27 51°11.607 2°29.208 248.3 13.1 247 25.7
2004-05-12 08:06:27 51°11.516 2°28.901 247 12.9 244 25
2004-05-12 08:07:28 51°11.425 2°28.587 251.8 12.6 248 23.7
2004-05-12 08:08:27 51°11.345 2°28.275 254.5 12.6 248 24.7
2004-05-12 08:09:28 51°11.262 2°27.949 251.5 13.1 247 23.7
2004-05-12 08:10:27 51°11.19 2°27.63 255.9 13 253 22.8
2004-05-12 08:11:28 51°11.123 2°27.32 254.6 10.4 253 25
2004-05-12 08:12:27 51°11.07 2°27.083 253.6 9.5 246 24.2
2004-05-12 08:13:27 51°11.018 2°26.852 254.5 9.2 248 23.4
2004-05-12 08:14:28 51°10.969 2°26.615 254.7 9.5 255 23.1
2004-05-12 08:15:28 51°10.92 2°26.38 256.5 9.3 253 22.3
2004-05-12 08:16:27 51°10.885 2°26.144 261.8 9.4 253 21.1
2004-05-12 08:17:27 51°10.851 2°25.902 260.8 9.3 257 19.9
2004-05-12 08:18:28 51°10.815 2°25.657 261.2 9.3 254 18.6
2004-05-12 08:19:28 51°10.781 2°25.414 260.9 9.4 255 17
2004-05-12 08:20:27 51°10.746 2°25.176 259.8 9.5 255 15
2004-05-12 08:21:28 51°10.711 2°24.931 260.3 9.3 258 15.4
2004-05-12 08:22:27 51°10.68 2°24.693 260.9 9.4 260 16.7
2004-05-12 08:23:26 51°10.648 2°24.45 261.2 10.7 257 24.9
2004-05-12 08:24:28 51°10.597 2°24.111 260.5 13.3 257 28.4
2004-05-12 08:25:28 51°10.521 2°23.789 253 12.7 247 28.4
2004-05-12 08:26:27 51°10.418 2°23.499 235.3 12.9 231 28.5
2004-05-12 08:27:28 51°10.285 2°23.22 237.2 13.2 239 28.2
2004-05-12 08:28:28 51°10.163 2°22.936 240.9 13.3 237 27.6
2004-05-12 08:29:28 51°10.041 2°22.649 238.7 13.4 237 27.1
2004-05-12 08:30:25 51°9.924 2°22.379 239.5 12.8 238 28
2004-05-12 08:31:28 51°9.796 2°22.082 240.7 13.1 232 28.5
2004-05-12 08:32:27 51°9.678 2°21.801 239.1 12.9 234 29.9
2004-05-12 08:33:27 51°9.555 2°21.511 240 13.2 236 29.7
2004-05-12 08:34:28 51°9.437 2°21.209 242 13.8 241 29.8
2004-05-12 08:35:28 51°9.322 2°20.913 243.3 13.2 237 29.8
2004-05-12 08:36:25 51°9.214 2°20.624 244.3 13.2 242 27.8
2004-05-12 08:37:27 51°9.088 2°20.316 240.2 13.6 237 27.3
2004-05-12 08:38:28 51°8.992 2°19.993 260.7 13.2 256 27.2
2004-05-12 08:39:27 51°8.994 2°19.642 277.8 13.7 275 27.2
2004-05-12 08:40:28 51°9.001 2°19.279 276.1 13.8 273 23.4
2004-05-12 08:41:25 51°9.008 2°18.938 279.2 13.4 274 25.7
2004-05-12 08:42:26 51°9.035 2°18.574 281.1 13.8 276 25.5
2004-05-12 08:43:26 51°9.059 2°18.222 279.8 13.4 274 25.5
2004-05-12 08:44:26 51°9.084 2°17.864 281.1 13.9 280 25.6
2004-05-12 08:45:27 51°9.108 2°17.5 281.3 13.6 275 23.1
2004-05-12 08:46:28 51°9.133 2°17.134 281 13.5 279 18.6
2004-05-12 08:47:27 51°9.156 2°16.78 280.1 13.8 273 17.8
2004-05-12 08:48:27 51°9.18 2°16.419 279.5 13.9 277 19
2004-05-12 08:49:27 51°9.2 2°16.055 275.8 13.7 272 20.1
2004-05-12 08:50:27 51°9.207 2°15.694 276.8 13.5 273 22.6
2004-05-12 08:51:26 51°9.213 2°15.338 275.8 13.7 267 28.7
2004-05-12 08:52:26 51°9.208 2°14.98 269.3 13.5 267 33.8
2004-05-12 08:53:28 51°9.175 2°14.618 257 13.2 250 34.2
2004-05-12 08:54:28 51°9.049 2°14.324 235.6 13.4 235 33.4
2004-05-12 08:55:27 51°8.915 2°14.047 236.6 13.6 230 36.2
2004-05-12 08:56:27 51°8.78 2°13.76 238.7 13.7 235 34.2
2004-05-12 08:57:28 51°8.64 2°13.471 235.8 13.9 231 35.1
2004-05-12 08:58:28 51°8.5 2°13.185 236.6 13.9 233 33.6
2004-05-12 08:59:25 51°8.371 2°12.909 234.7 14.2 232 32.6
2004-05-12 09:00:28 51°8.227 2°12.608 235.5 13.1 235 32.2
2004-05-12 09:01:25 51°8.093 2°12.336 231.9 13 229 31.1
2004-05-12 09:02:26 51°7.951 2°12.047 235.8 13.3 232 29.7
2004-05-12 09:03:36 51°7.769 2°11.735 229.8 14 223 28.2
2004-05-12 09:04:37 51°7.612 2°11.463 229.3 13.9 222 27.4
2004-05-12 09:05:42 51°7.446 2°11.163 232.2 14 224 24.9
2004-05-12 09:06:42 51°7.288 2°10.899 230.5 14 227 23.1
2004-05-12 09:07:42 51°7.138 2°10.623 234.2 14 228 21
2004-05-12 09:08:42 51°7.005 2°10.33 239.4 13.9 231 19.9
2004-05-12 09:09:42 51°6.883 2°10.017 242.3 14 239 19.2
2004-05-12 09:10:41 51°6.765 2°9.707 241.4 13.5 232 19.1
2004-05-12 09:11:42 51°6.641 2°9.394 240.2 13.5 238 15.8
2004-05-12 09:12:42 51°6.519 2°9.081 242.7 13.5 241 17.9
2004-05-12 09:13:42 51°6.412 2°8.757 246.9 13.8 240 17.4
2004-05-12 09:14:42 51°6.309 2°8.437 243.7 11.8 244 16.7
2004-05-12 09:15:42 51°6.271 2°8.243 265.9 5.4 262 16.9
2004-05-12 09:16:42 51°6.262 2°8.154 257.9 2.4 250 16.1
2004-05-12 09:17:42 51°6.254 2°8.108 267.9 1.7 261 17.7
2004-05-12 09:18:41 51°6.249 2°8.037 271.8 3.5 265 17.1
2004-05-12 09:19:42 51°6.242 2°7.948 268.9 3.3 259 18.4
2004-05-12 09:20:43 51°6.232 2°7.864 264 3.1 255 18.7
2004-05-12 09:21:51 51°6.219 2°7.776 263.4 3 261 17.1
2004-05-12 09:22:51 51°6.208 2°7.7 263.8 2.9 264 17.9
2004-05-12 09:23:50 51°6.198 2°7.628 267.6 2.8 264 17
2004-05-12 09:24:51 51°6.192 2°7.553 271.4 2.8 262 19.3
2004-05-12 09:25:49 51°6.186 2°7.477 266.6 3.2 261 20.2
2004-05-12 09:26:58 51°6.169 2°7.378 258.1 3.4 252 18.8
2004-05-12 09:27:58 51°6.148 2°7.294 249.6 3.4 250 19.7
2004-05-12 09:28:59 51°6.122 2°7.21 247.6 3.5 244 21.6
2004-05-12 09:30:05 51°6.094 2°7.117 248.8 3.5 242 19.2
2004-05-12 09:31:11 51°6.066 2°7.025 247.9 3.6 242 20.4
2004-05-12 09:32:11 51°6.039 2°6.942 248.7 3.6 239 20.2
2004-05-12 09:33:13 51°6.013 2°6.855 248.2 3.6 246 18
2004-05-12 09:34:11 51°5.99 2°6.772 252.6 3.5 248 19.1
2004-05-12 09:35:16 51°5.97 2°6.677 261 3.6 258 19.3
2004-05-12 09:36:21 51°5.958 2°6.58 268.6 3.5 264 17.4
2004-05-12 09:37:26 51°5.949 2°6.481 270.7 3.5 263 19
2004-05-12 09:38:30 51°5.944 2°6.383 273 3.4 265 17.6
2004-05-12 09:39:29 51°5.937 2°6.293 270.8 3.6 264 16.5
2004-05-12 09:40:31 51°5.93 2°6.198 271.6 3.5 262 19.1
2004-05-12 09:41:29 51°5.923 2°6.11 271 3.5 261 18.4
2004-05-12 09:42:31 51°5.916 2°6.015 276.6 3.4 262 18
2004-05-12 09:43:30 51°5.916 2°5.929 281.8 3.4 269 17.8
2004-05-12 09:44:38 51°5.921 2°5.831 286.7 3.2 277 18.6
2004-05-12 09:45:42 51°5.928 2°5.738 291.9 3.4 276 20.1
2004-05-12 09:46:46 51°5.935 2°5.665 298.7 2.2 280 19.5
2004-05-12 09:47:45 51°5.94 2°5.606 306.1 3.7 291 17.7
2004-05-12 09:48:52 51°6.012 2°5.538 10.5 4.8 3 22.7
2004-05-12 09:49:50 51°6.05 2°5.575 69.8 2.3 70 21.2
2004-05-12 09:50:54 51°6.056 2°5.644 75 2.6 80 22.7
2004-05-12 09:51:54 51°6.067 2°5.707 68.5 2.2 72 22.6
2004-05-12 09:52:53 51°6.08 2°5.773 73.5 2.9 76 23.8
2004-05-12 09:53:54 51°6.088 2°5.856 81 3 79 21.9
2004-05-12 09:54:57 51°6.102 2°5.94 69.9 3.1 67 24.1
2004-05-12 09:55:57 51°6.117 2°6.012 75.1 2.6 80 23.1
2004-05-12 09:56:59 51°6.122 2°6.08 81.9 2.5 81 20.9
2004-05-12 09:57:59 51°6.121 2°6.149 87.4 2.6 92 21.6
2004-05-12 09:58:57 51°6.113 2°6.212 94.5 2.7 111 21.8
2004-05-12 09:59:57 51°6.104 2°6.277 94.5 2.5 98 22.2
2004-05-12 10:00:59 51°6.098 2°6.344 89.2 2.5 96 21.3
2004-05-12 10:01:59 51°6.094 2°6.408 87.8 2.4 92 22.5
2004-05-12 10:02:59 51°6.091 2°6.473 87.5 2.6 100 23.9
2004-05-12 10:03:59 51°6.09 2°6.541 85.7 2.6 94 18.4
2004-05-12 10:04:59 51°6.088 2°6.607 84.3 2.4 92 21.4
2004-05-12 10:05:59 51°6.089 2°6.67 80.9 2.4 88 22.3
2004-05-12 10:06:57 51°6.093 2°6.73 74.2 2.3 81 20.6
2004-05-12 10:07:59 51°6.105 2°6.787 66.5 2.2 63 22.5
2004-05-12 10:08:57 51°6.116 2°6.842 68 2.5 75 20.3
2004-05-12 10:09:57 51°6.128 2°6.896 66.7 2.3 67 20.1
2004-05-12 10:10:59 51°6.141 2°6.952 70.4 2.3 79 22.4
2004-05-12 10:11:59 51°6.146 2°7.012 80.7 2.2 88 20.8
2004-05-12 10:12:59 51°6.146 2°7.073 79.7 2.3 88 20.8
2004-05-12 10:13:59 51°6.15 2°7.131 74.7 2.1 76 22.2
2004-05-12 10:14:57 51°6.159 2°7.182 66.7 2.1 69 22.8
2004-05-12 10:15:59 51°6.171 2°7.234 63 2.1 70 22.2
2004-05-12 10:16:59 51°6.187 2°7.28 56.6 2.1 58 15.7
2004-05-12 10:17:59 51°6.209 2°7.317 48.6 2 42 18.2
2004-05-12 10:18:59 51°6.226 2°7.355 63.3 1.7 64 20
2004-05-12 10:20:06 51°6.234 2°7.406 73.3 1.9 77 21.8
2004-05-12 10:21:06 51°6.238 2°7.457 75.1 2 81 20.4
2004-05-12 10:22:05 51°6.243 2°7.508 74.7 2 74 20.5
2004-05-12 10:23:06 51°6.249 2°7.568 73.9 2.5 85 18.3
2004-05-12 10:24:05 51°6.258 2°7.632 74.4 2.4 72 19.6
2004-05-12 10:25:06 51°6.271 2°7.693 64.2 2.3 68 17.1
2004-05-12 10:26:05 51°6.29 2°7.741 55.2 2.1 47 18.8
2004-05-12 10:27:06 51°6.312 2°7.79 58.2 2.2 54 19.8
2004-05-12 10:28:05 51°6.33 2°7.843 64.5 2.4 64 20
2004-05-12 10:29:06 51°6.344 2°7.902 65.6 1.7 61 18.8
2004-05-12 10:30:05 51°6.35 2°7.925 59 0.6 80 19.7
2004-05-12 10:31:06 51°6.349 2°7.928 56.3 0.4 258 19.6
2004-05-12 10:32:06 51°6.339 2°7.92 65.4 0.8 216 18.8
2004-05-12 10:33:06 51°6.36 2°7.973 53.8 4.6 46 17.2
2004-05-12 10:34:07 51°6.426 2°8.154 70 9.9 67 19.5
2004-05-12 10:35:07 51°6.513 2°8.431 65.6 12.3 62 20.1
2004-05-12 10:36:06 51°6.6 2°8.723 68.9 12.5 64 20.8
2004-05-12 10:37:07 51°6.692 2°9.027 68.5 12.6 64 21.7
2004-05-12 10:38:07 51°6.782 2°9.323 68.6 12.5 64 21.6
2004-05-12 10:39:07 51°6.873 2°9.622 69.8 12.6 65 20.5
2004-05-12 10:40:07 51°6.955 2°9.924 70.1 12.5 65 21.5
2004-05-12 10:41:07 51°7.041 2°10.227 70.4 12.5 67 20.4
2004-05-12 10:42:05 51°7.123 2°10.521 70.4 12.7 66 20.2
2004-05-12 10:43:07 51°7.212 2°10.834 70.2 12.7 66 20.1
2004-05-12 10:44:07 51°7.299 2°11.136 70.1 12.6 65 19.4
2004-05-12 10:45:07 51°7.385 2°11.439 70.4 12.5 66 20.2
2004-05-12 10:46:07 51°7.469 2°11.74 70.6 12.4 67 19.9
2004-05-12 10:47:07 51°7.555 2°12.041 70.5 12.4 64 19.2
2004-05-12 10:48:07 51°7.655 2°12.308 59.1 9.2 52 19.1
2004-05-12 10:49:07 51°7.723 2°12.39 33.7 2.9 21 19.8
2004-05-12 10:50:07 51°7.74 2°12.41 64 1.4 53 20.4
2004-05-12 10:51:07 51°7.768 2°12.446 40.9 2.8 30 20.4
2004-05-12 10:52:07 51°7.807 2°12.494 51.5 3.2 42 21.3
2004-05-12 10:53:07 51°7.84 2°12.558 53.1 3.1 47 21.3
2004-05-12 10:54:07 51°7.876 2°12.612 49.4 3 44 21.6
2004-05-12 10:55:07 51°7.906 2°12.678 61.8 3.1 63 21.6
2004-05-12 10:56:07 51°7.936 2°12.744 53 3.1 43 21.8
2004-05-12 10:57:07 51°7.973 2°12.798 43.7 3 37 22.2
2004-05-12 10:58:07 51°8.013 2°12.841 50.3 3 45 22.5
2004-05-12 10:59:07 51°8.036 2°12.912 62.7 3.2 63 22.2
2004-05-12 11:00:07 51°8.068 2°12.982 56.9 3.3 51 22.4
2004-05-12 11:01:07 51°8.101 2°13.053 59.5 3.4 55 22.4
2004-05-12 11:02:07 51°8.133 2°13.126 57.8 3.3 52 21.6
2004-05-12 11:03:07 51°8.166 2°13.194 59.3 3.2 56 21.6
2004-05-12 11:04:07 51°8.199 2°13.261 57.1 3.1 49 21.2
2004-05-12 11:05:07 51°8.234 2°13.324 54.2 3.2 41 21.6
2004-05-12 11:06:07 51°8.269 2°13.383 54.7 3 47 20.8
2004-05-12 11:07:07 51°8.306 2°13.44 52.1 3.1 39 20.4
2004-05-12 11:08:07 51°8.346 2°13.498 52.9 3.2 45 20.5
2004-05-12 11:09:07 51°8.382 2°13.559 53.7 3.2 47 20.8
2004-05-12 11:10:07 51°8.421 2°13.614 50.2 2.9 44 21.6
2004-05-12 11:11:07 51°8.46 2°13.662 49.2 3 38 22.1
2004-05-12 11:12:07 51°8.496 2°13.711 50.4 2.9 37 22.1
2004-05-12 11:13:07 51°8.535 2°13.759 46.5 3 33 22.3
2004-05-12 11:14:15 51°8.583 2°13.808 46.5 3.1 33 24
2004-05-12 11:15:15 51°8.622 2°13.854 51.3 3 36 26.3
2004-05-12 11:16:15 51°8.652 2°13.913 66.8 2.7 65 26.3
2004-05-12 11:17:15 51°8.672 2°13.982 68.7 2.8 67 24.2
2004-05-12 11:18:15 51°8.688 2°14.054 69.5 2.8 66 20.5
2004-05-12 11:19:14 51°8.718 2°14.108 55 2.8 44 19.6
2004-05-12 11:20:15 51°8.751 2°14.16 54.7 2.6 48 21.1
2004-05-12 11:21:15 51°8.781 2°14.213 59.5 2.7 49 21.5
2004-05-12 11:22:15 51°8.803 2°14.272 68.2 2.5 62 20.4
2004-05-12 11:23:15 51°8.815 2°14.34 77.8 2.6 77 17.9
2004-05-12 11:24:14 51°8.814 2°14.412 98.1 2.5 107 13.6
2004-05-12 11:25:15 51°8.8 2°14.45 105.8 1.2 128 12.6
2004-05-12 11:26:15 51°8.774 2°14.473 137.8 2.9 170 11.8
2004-05-12 11:27:15 51°8.716 2°14.442 200.8 4 215 11.7
2004-05-12 11:28:15 51°8.668 2°14.366 215.4 4 229 11.7
2004-05-12 11:29:15 51°8.631 2°14.284 229.4 3.7 238 11.6
2004-05-12 11:30:15 51°8.603 2°14.201 235.1 3.5 246 11.6
2004-05-12 11:31:15 51°8.579 2°14.123 235.9 3.3 249 11.3
2004-05-12 11:32:13 51°8.555 2°14.051 227.3 3.3 242 11.2
2004-05-12 11:33:15 51°8.522 2°13.981 211 3.3 227 11.7
2004-05-12 11:34:15 51°8.484 2°13.915 210.4 3.5 229 11.5
2004-05-12 11:35:15 51°8.445 2°13.85 208.7 3.5 229 11
2004-05-12 11:36:15 51°8.406 2°13.779 215.3 3.9 241 11
2004-05-12 11:37:15 51°8.368 2°13.708 216.6 3.4 229 10.4
2004-05-12 11:38:15 51°8.332 2°13.633 217.2 3.6 233 11.6
2004-05-12 11:39:15 51°8.292 2°13.566 209.8 3.5 223 14.5
2004-05-12 11:40:13 51°8.248 2°13.516 194.7 3.5 214 14.6
2004-05-12 11:41:15 51°8.197 2°13.471 189.5 3.4 207 14.1
2004-05-12 11:42:14 51°8.147 2°13.423 195.9 3.7 217 13.4
2004-05-12 11:43:15 51°8.096 2°13.372 197.1 3.7 215 14
2004-05-12 11:44:15 51°8.046 2°13.322 200.3 3.6 214 14
2004-05-12 11:45:15 51°7.997 2°13.264 210.4 3.6 217 14
2004-05-12 11:46:15 51°7.952 2°13.2 214.8 3.6 225 14.3
2004-05-12 11:47:15 51°7.908 2°13.139 211.4 3.5 223 14
2004-05-12 11:48:15 51°7.865 2°13.084 206.4 3.3 213 13.5
2004-05-12 11:49:14 51°7.826 2°13.021 229.4 3.4 236 13.7
2004-05-12 11:50:15 51°7.792 2°12.949 239.5 3.3 230 14.8
2004-05-12 11:51:15 51°7.764 2°12.873 243.3 3.4 240 14.6
2004-05-12 11:52:15 51°7.734 2°12.801 240.4 3.3 227 14.8
2004-05-12 11:53:15 51°7.702 2°12.729 238.1 3.4 235 14.6
2004-05-12 11:54:15 51°7.669 2°12.659 235.7 3.4 230 15.1
2004-05-12 11:55:15 51°7.634 2°12.591 237.4 3.3 229 15.1
2004-05-12 11:56:15 51°7.602 2°12.519 244.3 3.3 239 15
2004-05-12 11:57:13 51°7.574 2°12.449 247.7 3.3 236 15
2004-05-12 11:58:15 51°7.546 2°12.372 251.9 3.3 240 15.5
2004-05-12 11:59:15 51°7.521 2°12.297 257.6 3.2 243 15.5
2004-05-12 12:00:15 51°7.503 2°12.22 272.7 3.1 246 16
2004-05-12 12:01:15 51°7.49 2°12.145 281.2 3 248 15.8
2004-05-12 12:02:15 51°7.479 2°12.073 287.4 2.9 252 16.6
2004-05-12 12:03:15 51°7.472 2°11.989 288.8 3.5 269 17.5
2004-05-12 12:04:14 51°7.475 2°11.892 298.6 3.7 276 18.3
2004-05-12 12:05:15 51°7.482 2°11.79 305.4 3.8 282 19.6
2004-05-12 12:06:15 51°7.499 2°11.695 319.3 3.5 290 20.9
2004-05-12 12:07:15 51°7.515 2°11.623 334 2.6 293 21.6
2004-05-12 12:08:15 51°7.536 2°11.595 27.1 1.2 350 21.8
2004-05-12 12:09:15 51°7.553 2°11.627 64.2 2.9 69 22.2
2004-05-12 12:10:15 51°7.614 2°11.766 53.2 9 49 22.5
2004-05-12 12:11:15 51°7.738 2°11.984 53.1 12.2 49 23.1
2004-05-12 12:12:15 51°7.872 2°12.223 54.3 12 48 24.2
2004-05-12 12:13:13 51°8 2°12.458 54.5 12.3 50 25.4
2004-05-12 12:14:15 51°8.134 2°12.712 56.2 12 51 27.2
2004-05-12 12:15:15 51°8.252 2°12.974 59.5 12.3 54 27.1
2004-05-12 12:16:15 51°8.368 2°13.238 61.5 12.2 57 27.1
2004-05-12 12:17:15 51°8.473 2°13.512 64 12.1 58 25.5
2004-05-12 12:18:15 51°8.567 2°13.795 68.8 12.2 64 23.9
2004-05-12 12:19:15 51°8.624 2°14.097 80.6 11.7 80 10.4
2004-05-12 12:20:15 51°8.562 2°14.376 130.9 12 132 11.5
2004-05-12 12:21:15 51°8.441 2°14.634 124.4 11.9 128 12.7
2004-05-12 12:22:15 51°8.271 2°14.832 148.9 13.4 151 13.5
2004-05-12 12:23:14 51°8.049 2°14.859 187.8 14.7 188 14.4
2004-05-12 12:24:15 51°7.822 2°14.706 214.4 15 216 13.8
2004-05-12 12:25:15 51°7.655 2°14.469 221 10.9 215 14
2004-05-12 12:26:15 51°7.547 2°14.406 180.7 5.1 191 14.8
2004-05-12 12:27:15 51°7.496 2°14.395 140 2.5 181 14.9
2004-05-12 12:28:15 51°7.468 2°14.423 86.6 1.9 122 15.8
2004-05-12 12:29:15 51°7.463 2°14.472 68.6 1.9 80 16
2004-05-12 12:30:13 51°7.471 2°14.522 62.5 2.1 74 16.7
2004-05-12 12:31:15 51°7.483 2°14.577 65.5 2.4 81 17.1
2004-05-12 12:32:15 51°7.486 2°14.639 70.8 2.3 87 18
2004-05-12 12:33:15 51°7.49 2°14.7 68.8 2.3 79 17.9
2004-05-12 12:34:14 51°7.495 2°14.76 70.9 2.3 90 18.3
2004-05-12 12:35:14 51°7.494 2°14.822 75.4 2.5 95 19
2004-05-12 12:36:17 51°7.492 2°14.89 76 2.4 92 19.2
2004-05-12 12:37:16 51°7.489 2°14.956 76.4 2.6 95 19.7
2004-05-12 12:38:16 51°7.486 2°15.023 75.4 2.7 98 20.1
2004-05-12 12:39:16 51°7.485 2°15.09 75 2.5 89 19.8
2004-05-12 12:40:17 51°7.487 2°15.155 68.9 2.3 85 19.3
2004-05-12 12:41:16 51°7.494 2°15.211 65 2.2 82 19.3
2004-05-12 12:42:17 51°7.5 2°15.268 66 2.1 82 18.8
2004-05-12 12:43:16 51°7.506 2°15.326 67.1 2.4 81 19
2004-05-12 12:44:16 51°7.51 2°15.387 69.1 2.4 86 18.7
2004-05-12 12:45:16 51°7.516 2°15.447 67.4 2.3 82 18.2
2004-05-12 12:46:13 51°7.524 2°15.506 67.1 2.3 75 17.7
2004-05-12 12:47:17 51°7.534 2°15.572 63.2 2.3 71 17.5
2004-05-12 12:48:15 51°7.544 2°15.63 62 2.3 72 17.4
2004-05-12 12:49:15 51°7.557 2°15.687 59.9 2.2 65 17.6
2004-05-12 12:50:16 51°7.567 2°15.743 60.1 2.2 74 17.6
2004-05-12 12:51:17 51°7.58 2°15.8 59.8 2.2 68 16.6
2004-05-12 12:52:17 51°7.597 2°15.852 55.1 2.3 61 16.7
2004-05-12 12:53:16 51°7.616 2°15.905 55 2.4 60 16.3
2004-05-12 12:54:17 51°7.636 2°15.959 55.5 2.3 60 16.4
2004-05-12 12:55:17 51°7.655 2°16.011 56 2.2 63 16.5
2004-05-12 12:56:17 51°7.674 2°16.065 56.6 2.3 57 16.4
2004-05-12 12:57:15 51°7.694 2°16.116 55.9 2.4 57 16.4
2004-05-12 12:58:17 51°7.714 2°16.173 55.6 2.4 65 16.4
2004-05-12 12:59:15 51°7.733 2°16.225 56.4 2.4 64 16.2
2004-05-12 13:00:17 51°7.756 2°16.274 50.8 2.3 55 16.1
2004-05-12 13:01:15 51°7.781 2°16.315 47.4 2.1 45 16
2004-05-12 13:02:17 51°7.804 2°16.358 51.7 2.1 52 16
2004-05-12 13:03:15 51°7.828 2°16.398 48.5 2.2 44 16.1
2004-05-12 13:04:17 51°7.847 2°16.423 44 0.9 33 16.6
2004-05-12 13:05:17 51°7.851 2°16.426 43.8 0.3 140 16.1
2004-05-12 13:06:17 51°7.846 2°16.42 47 0.2 169 16.6
2004-05-12 13:07:17 51°7.882 2°16.473 48.2 5.9 42 16.3
2004-05-12 13:08:22 51°7.989 2°16.643 50.2 10.8 43 15.7
2004-05-12 13:09:24 51°8.132 2°16.871 52 12 46 13.8
2004-05-12 13:10:25 51°8.267 2°17.108 54 11.7 47 13.3
2004-05-12 13:11:25 51°8.379 2°17.359 65.3 11.7 61 18.3
2004-05-12 13:12:25 51°8.47 2°17.63 72.3 11.7 68 22.1
2004-05-12 13:13:30 51°8.514 2°17.955 86.9 11.8 87 21.7
2004-05-12 13:14:29 51°8.527 2°18.264 89.2 11.9 89 20.1
2004-05-12 13:15:29 51°8.48 2°18.575 102.3 12.1 99 16.2
2004-05-12 13:16:33 51°8.459 2°18.914 96.2 12.1 93 15.1
2004-05-12 13:17:33 51°8.443 2°19.229 96.2 10.2 95 14.7
2004-05-12 13:18:37 51°8.463 2°19.371 61.7 2.9 62 15.2
2004-05-12 13:19:37 51°8.482 2°19.412 55.3 1.6 61 15.7
2004-05-12 13:20:37 51°8.495 2°19.447 59.2 1.7 63 16.1
2004-05-12 13:21:37 51°8.503 2°19.498 77.4 2.2 94 16.2
2004-05-12 13:22:37 51°8.503 2°19.559 76.1 2.2 89 16.1
2004-05-12 13:23:37 51°8.51 2°19.617 68.6 2.3 74 16.4
2004-05-12 13:24:37 51°8.521 2°19.672 68.6 2.2 77 17.1
2004-05-12 13:25:37 51°8.527 2°19.731 75.4 2.2 85 17.1
2004-05-12 13:26:37 51°8.529 2°19.793 76.8 2.4 86 16.8
2004-05-12 13:27:45 51°8.531 2°19.863 76.8 2.3 88 16.6
2004-05-12 13:28:47 51°8.531 2°19.927 76.7 2.4 93 16.5
2004-05-12 13:30:01 51°8.534 2°20.005 75.7 2.4 85 16.5
2004-05-12 13:31:03 51°8.539 2°20.07 74.6 2.4 82 16.4
2004-05-12 13:32:09 51°8.542 2°20.14 74.8 2.5 82 16.3
2004-05-12 13:33:13 51°8.543 2°20.209 76.4 2.4 89 16.4
2004-05-12 13:34:15 51°8.546 2°20.274 72.8 2.4 91 16.1
2004-05-12 13:35:21 51°8.552 2°20.337 66.8 2.1 72 16.3
2004-05-12 13:36:25 51°8.564 2°20.395 64.5 2.2 68 15.9
2004-05-12 13:37:25 51°8.576 2°20.451 65.6 2.3 72 16.1
2004-05-12 13:38:26 51°8.586 2°20.505 67.2 2.2 76 16.1
2004-05-12 13:39:25 51°8.595 2°20.559 64 2 70 16.1
2004-05-12 13:40:26 51°8.608 2°20.61 59.7 2 64 16.5
2004-05-12 13:41:26 51°8.625 2°20.658 56.9 2 59 16.8
2004-05-12 13:42:26 51°8.64 2°20.702 59 1.9 67 16.6
2004-05-12 13:43:25 51°8.655 2°20.749 57.5 2.2 55 16.6
2004-05-12 13:44:26 51°8.672 2°20.801 59.8 2.2 66 17
2004-05-12 13:45:25 51°8.69 2°20.856 57.8 2.6 60 16.8
2004-05-12 13:46:25 51°8.711 2°20.913 58.9 2.5 62 17
2004-05-12 13:47:25 51°8.731 2°20.975 59.9 2.5 60 17
2004-05-12 13:48:26 51°8.752 2°21.032 53.8 2.5 54 17.2
2004-05-12 13:49:25 51°8.78 2°21.08 47.7 2.4 42 17.3
2004-05-12 13:50:25 51°8.809 2°21.128 49.7 2.5 49 17.3
2004-05-12 13:51:29 51°8.836 2°21.18 50.2 2.3 56 17.6
2004-05-12 13:52:31 51°8.86 2°21.228 50.1 2.3 53 16.4
2004-05-12 13:53:31 51°8.882 2°21.269 47.7 1.4 47 17.1
2004-05-12 13:54:37 51°8.899 2°21.275 14.1 1 329 17.3
2004-05-12 13:55:47 51°8.917 2°21.252 7.2 2.3 343 17.4
2004-05-12 13:56:46 51°8.965 2°21.289 49 5.4 45 16.5
2004-05-12 13:57:47 51°9.051 2°21.422 48.6 8.7 45 17.5
2004-05-12 13:58:53 51°9.18 2°21.618 50 10.3 45 18.2
2004-05-12 13:59:53 51°9.315 2°21.833 50.3 11.8 45 21.8
2004-05-12 14:00:58 51°9.467 2°22.073 50.4 11.8 46 23.4
2004-05-12 14:01:57 51°9.604 2°22.287 50 11.9 45 25.6
2004-05-12 14:02:57 51°9.743 2°22.507 49.6 11.8 45 24
2004-05-12 14:03:57 51°9.88 2°22.725 50 11.6 45 25.2
2004-05-12 14:05:03 51°10.029 2°22.965 50.6 11.5 45 26.7
2004-05-12 14:06:03 51°10.156 2°23.197 54.8 11.5 51 26.1
2004-05-12 14:07:09 51°10.291 2°23.459 53.9 11.8 51 26.4
2004-05-12 14:08:19 51°10.404 2°23.774 63.9 11.9 62 26.4
2004-05-12 14:09:17 51°10.497 2°24.041 63.6 12 62 26.3
2004-05-12 14:10:18 51°10.596 2°24.323 63.8 12 59 24.1
2004-05-12 14:11:22 51°10.702 2°24.617 63 12.1 59 17.5
2004-05-12 14:12:22 51°10.764 2°24.922 82 12.1 74 12.4
2004-05-12 14:13:25 51°10.803 2°25.25 82 12.1 79 12.6
2004-05-12 14:14:26 51°10.843 2°25.569 80.2 12 78 15.1
2004-05-12 14:15:25 51°10.884 2°25.877 79.8 12.1 77 16.9
2004-05-12 14:16:25 51°10.926 2°26.187 80.5 12.1 77 18.8
2004-05-12 14:17:25 51°10.971 2°26.499 79.6 12 78 20.2
2004-05-12 14:18:25 51°11.016 2°26.808 78.7 12.2 78 21.8
2004-05-12 14:19:25 51°11.063 2°27.118 79.1 12 75 21.9
2004-05-12 14:20:26 51°11.153 2°27.405 66.2 12 60 22.5
2004-05-12 14:21:26 51°11.249 2°27.684 67.1 11.9 62 21.8
2004-05-12 14:22:25 51°11.327 2°27.968 71.2 12.1 66 21.7
2004-05-12 14:23:25 51°11.403 2°28.259 71.7 11.9 66 22.2
2004-05-12 14:24:25 51°11.476 2°28.549 71.3 11.9 67 21.8
2004-05-12 14:25:25 51°11.549 2°28.842 71.2 11.9 66 23.5
2004-05-12 14:26:26 51°11.623 2°29.14 71.3 11.9 69 22.7
2004-05-12 14:27:26 51°11.693 2°29.435 71.1 12 70 23.4
2004-05-12 14:28:25 51°11.762 2°29.725 71.3 12 68 22.8
2004-05-12 14:29:25 51°11.832 2°30.023 71.5 12.1 71 22.1
2004-05-12 14:30:25 51°11.904 2°30.323 71.8 12.2 69 22.1
2004-05-12 14:31:25 51°11.975 2°30.625 72.1 12.2 69 22.1
2004-05-12 14:32:26 51°12.045 2°30.932 71.4 12.1 70 22.4
2004-05-12 14:33:25 51°12.113 2°31.226 71.1 12.1 71 21.9
2004-05-12 14:34:25 51°12.183 2°31.526 70.9 12 71 21
2004-05-12 14:35:26 51°12.255 2°31.833 71.8 12.2 69 20.6
2004-05-12 14:36:25 51°12.327 2°32.133 70.7 12.2 69 18.3
2004-05-12 14:37:25 51°12.397 2°32.436 70.7 12.2 70 16.4
2004-05-12 14:38:25 51°12.472 2°32.739 71.6 12.4 67 15.5
2004-05-12 14:39:25 51°12.546 2°33.044 71.5 12.4 67 14.9
2004-05-12 14:40:26 51°12.621 2°33.352 71.5 12.3 69 15.1
2004-05-12 14:41:25 51°12.701 2°33.645 69.2 12.2 66 15.6
2004-05-12 14:42:25 51°12.782 2°33.941 69.3 12.1 67 16.8
2004-05-12 14:43:26 51°12.864 2°34.241 68.8 12.2 68 16.7
2004-05-12 14:44:26 51°12.946 2°34.536 69 12 66 17.2
2004-05-12 14:45:25 51°13.024 2°34.824 70.1 12.2 67 16.9
2004-05-12 14:46:25 51°13.104 2°35.116 69.3 12 67 17
2004-05-12 14:47:25 51°13.19 2°35.403 66.8 12 63 16.6
2004-05-12 14:48:25 51°13.28 2°35.69 67.3 12.1 65 16.8
2004-05-12 14:49:25 51°13.37 2°35.976 66.7 12.1 65 16.5
2004-05-12 14:50:26 51°13.46 2°36.267 67.6 12.1 65 16.9
2004-05-12 14:51:26 51°13.551 2°36.553 67.3 12.1 63 16.8
2004-05-12 14:52:26 51°13.641 2°36.84 67.9 12.1 63 18.6
2004-05-12 14:53:25 51°13.719 2°37.13 72.7 12.2 68 18.2
2004-05-12 14:54:26 51°13.788 2°37.439 73.9 12.2 72 18
2004-05-12 14:55:25 51°13.847 2°37.746 76 12.4 74 16.1
2004-05-12 14:56:25 51°13.906 2°38.056 74 12.4 71 15.2
2004-05-12 14:57:26 51°13.975 2°38.37 76.5 12.3 72 12.5
2004-05-12 14:58:26 51°14.013 2°38.694 84.7 12.6 86 11.4
2004-05-12 14:59:25 51°14.009 2°39.026 93.4 12.6 94 13
2004-05-12 15:00:26 51°13.985 2°39.369 99.5 13.1 98 14
2004-05-12 15:01:26 51°13.957 2°39.706 95.1 12.6 91 14.3
2004-05-12 15:02:25 51°13.97 2°40.032 87.2 12.5 85 14.2
2004-05-12 15:03:25 51°13.98 2°40.351 87 11.8 87 15
2004-05-12 15:04:26 51°13.992 2°40.67 84.8 11.7 82 14.9
2004-05-12 15:05:25 51°14.03 2°40.971 79.6 11.7 77 15.2
2004-05-12 15:06:25 51°14.071 2°41.277 79.7 11.8 80 15.9
2004-05-12 15:07:25 51°14.102 2°41.584 82.7 11.5 82 16.9
2004-05-12 15:08:25 51°14.129 2°41.89 82 11.6 84 17.1
2004-05-12 15:09:26 51°14.158 2°42.204 82.4 11.7 81 17.1
2004-05-12 15:10:25 51°14.185 2°42.505 82.7 11.7 80 16.7
2004-05-12 15:11:25 51°14.216 2°42.812 82.4 11.7 80 16.5
2004-05-12 15:12:25 51°14.243 2°43.121 83.1 11.8 82 16.1
2004-05-12 15:13:25 51°14.272 2°43.431 81.8 11.9 79 15.8
2004-05-12 15:14:25 51°14.301 2°43.743 82 11.8 83 14.9
2004-05-12 15:15:25 51°14.33 2°44.057 82.5 12.1 82 14.1
2004-05-12 15:16:25 51°14.363 2°44.375 82 12.1 78 12.8
2004-05-12 15:17:25 51°14.396 2°44.693 82.6 12.3 79 11.5
2004-05-12 15:18:25 51°14.434 2°45.014 79.7 12.2 77 9.7
2004-05-12 15:19:25 51°14.482 2°45.331 78.7 12.3 78 8.4
2004-05-12 15:20:25 51°14.528 2°45.653 79.2 12.6 75 8.4
2004-05-12 15:21:25 51°14.575 2°45.981 80.2 12.7 77 9.7
2004-05-12 15:22:25 51°14.623 2°46.316 78.3 12.9 77 11.1
2004-05-12 15:23:25 51°14.672 2°46.647 79 12.7 74 12.4
2004-05-12 15:24:25 51°14.719 2°46.974 79.6 12.6 77 13.2
2004-05-12 15:25:25 51°14.766 2°47.3 78.3 12.6 76 13
2004-05-12 15:26:26 51°14.812 2°47.631 78.7 12.7 77 13
2004-05-12 15:27:25 51°14.857 2°47.95 79.6 12.5 75 13.3
2004-05-12 15:28:25 51°14.903 2°48.275 79.6 12.5 78 12.7
2004-05-12 15:29:25 51°14.946 2°48.596 79.2 12.3 77 12.9
2004-05-12 15:30:26 51°14.988 2°48.92 79.8 12.3 80 12.8
2004-05-12 15:31:25 51°15.027 2°49.235 81.8 12.3 79 13.2
2004-05-12 15:32:25 51°15.06 2°49.558 82.8 12.3 78 12.6
2004-05-12 15:33:26 51°15.089 2°49.887 81.9 12.3 81 13
2004-05-12 15:34:25 51°15.12 2°50.204 80.9 12.2 80 12.8
2004-05-12 15:35:25 51°15.155 2°50.529 81.7 12.5 79 12.6
2004-05-12 15:36:25 51°15.189 2°50.849 81 12.2 82 13.1
2004-05-12 15:37:25 51°15.223 2°51.167 81.4 12.1 78 12.3
2004-05-12 15:38:25 51°15.251 2°51.487 84.9 12.2 85 12.4
2004-05-12 15:39:25 51°15.26 2°51.811 89.7 12.4 86 12.4
2004-05-12 15:40:26 51°15.249 2°52.144 98.3 12.7 104 12.1
2004-05-12 15:41:26 51°15.184 2°52.469 109.3 12.9 113 11.5
2004-05-12 15:42:26 51°15.104 2°52.788 107.9 13.1 109 10.8
2004-05-12 15:43:25 51°15.025 2°53.1 113 13.2 113 10.5
2004-05-12 15:44:25 51°14.925 2°53.412 117.3 12.6 124 10.3
2004-05-12 15:45:26 51°14.809 2°53.717 121.7 13.2 126 10.2
2004-05-12 15:46:26 51°14.703 2°54.026 119 13.5 115 11.2
2004-05-12 15:47:25 51°14.606 2°54.334 114.1 13.4 111 11.4
2004-05-12 15:48:26 51°14.523 2°54.658 121 13.4 126 10.9
2004-05-12 15:49:26 51°14.405 2°54.954 121.9 13 127 10.8
2004-05-12 15:50:25 51°14.314 2°55.176 121.7 7.6 121 11.1
2004-05-12 15:51:25 51°14.252 2°55.291 139.5 4.7 135 11.2
2004-05-12 15:52:25 51°14.199 2°55.36 149.5 3.9 146 11.1
2004-05-12 15:53:25 51°14.135 2°55.41 162 4.3 159 11.1
2004-05-12 15:54:25 51°14.031 2°55.474 161.9 9.5 160 10.8
2004-05-12 15:55:25 51°13.896 2°55.566 157 7.8 153 9.4
2004-05-12 15:56:26 51°13.78 2°55.672 151.7 7.8 146 10.2
2004-05-12 15:57:25 51°13.697 2°55.794 130.5 6.1 126 12.6
2004-05-12 15:58:25 51°13.652 2°55.91 122.1 4.8 119 9.9
2004-05-12 15:59:25 51°13.62 2°56.008 117.6 3.8 114 10
2004-05-12 16:00:25 51°13.602 2°56.076 117.5 2.4 116 8.8